sensor_id;sensor_type;location;lat;lon;timestamp;pressure;altitude;pressure_sealevel;temperature;humidity
31538;BME280;18147;51.952;6.146;2023-04-06T00:01:21;101780.63;;;3.12;100.00
31538;BME280;18147;51.952;6.146;2023-04-06T00:03:46;101782.50;;;3.04;100.00
31538;BME280;18147;51.952;6.146;2023-04-06T00:06:12;101774.56;;;3.07;98.48
31538;BME280;18147;51.952;6.146;2023-04-06T00:08:38;101774.56;;;3.05;100.00
31538;BME280;18147;51.952;6.146;2023-04-06T00:11:03;101769.41;;;2.99;100.00
31538;BME280;18147;51.952;6.146;2023-04-06T00:13:29;101769.59;;;2.89;100.00
31538;BME280;18147;51.952;6.146;2023-04-06T00:16:09;101776.19;;;2.62;100.00
31538;BME280;18147;51.952;6.146;2023-04-06T00:18:35;101764.25;;;2.38;100.00
31538;BME280;18147;51.952;6.146;2023-04-06T00:21:00;101774.03;;;2.28;100.00
31538;BME280;18147;51.952;6.146;2023-04-06T00:23:26;101768.00;;;2.21;100.00
31538;BME280;18147;51.952;6.146;2023-04-06T00:25:51;101761.88;;;2.19;100.00
31538;BME280;18147;51.952;6.146;2023-04-06T00:28:17;101760.09;;;2.20;100.00
31538;BME280;18147;51.952;6.146;2023-04-06T00:30:43;101752.13;;;2.27;100.00
31538;BME280;18147;51.952;6.146;2023-04-06T00:33:08;101753.53;;;2.50;100.00
31538;BME280;18147;51.952;6.146;2023-04-06T00:35:34;101742.25;;;2.42;100.00
31538;BME280;18147;51.952;6.146;2023-04-06T00:37:59;101754.91;;;2.17;100.00
31538;BME280;18147;51.952;6.146;2023-04-06T00:40:25;101737.09;;;2.34;100.00
31538;BME280;18147;51.952;6.146;2023-04-06T00:42:52;101738.69;;;2.44;100.00
31538;BME280;18147;51.952;6.146;2023-04-06T00:45:18;101740.56;;;2.38;100.00
31538;BME280;18147;51.952;6.146;2023-04-06T00:47:43;101748.69;;;2.21;100.00
31538;BME280;18147;51.952;6.146;2023-04-06T00:50:09;101741.53;;;2.32;100.00
31538;BME280;18147;51.952;6.146;2023-04-06T00:52:35;101740.16;;;2.06;100.00
31538;BME280;18147;51.952;6.146;2023-04-06T00:55:02;101740.66;;;2.30;100.00
31538;BME280;18147;51.952;6.146;2023-04-06T00:57:28;101738.44;;;2.02;100.00
31538;BME280;18147;51.952;6.146;2023-04-06T00:59:55;101730.75;;;1.86;100.00
31538;BME280;18147;51.952;6.146;2023-04-06T01:02:21;101740.34;;;1.90;100.00
31538;BME280;18147;51.952;6.146;2023-04-06T01:04:50;101730.69;;;1.92;100.00
31538;BME280;18147;51.952;6.146;2023-04-06T01:07:27;101727.88;;;2.04;100.00
31538;BME280;18147;51.952;6.146;2023-04-06T01:10:06;101721.69;;;2.08;100.00
31538;BME280;18147;51.952;6.146;2023-04-06T01:12:36;101720.19;;;1.90;100.00
31538;BME280;18147;51.952;6.146;2023-04-06T01:15:08;101714.72;;;2.05;100.00
31538;BME280;18147;51.952;6.146;2023-04-06T01:17:38;101706.59;;;2.21;100.00
31538;BME280;18147;51.952;6.146;2023-04-06T01:20:10;101706.59;;;2.21;100.00
31538;BME280;18147;51.952;6.146;2023-04-06T01:22:36;101707.38;;;2.27;100.00
31538;BME280;18147;51.952;6.146;2023-04-06T01:25:03;101703.94;;;2.24;100.00
31538;BME280;18147;51.952;6.146;2023-04-06T01:27:39;101708.44;;;2.14;100.00
31538;BME280;18147;51.952;6.146;2023-04-06T01:30:11;101698.13;;;2.02;100.00
31538;BME280;18147;51.952;6.146;2023-04-06T01:32:45;101694.59;;;2.03;100.00
31538;BME280;18147;51.952;6.146;2023-04-06T01:35:19;101704.56;;;1.81;100.00
31538;BME280;18147;51.952;6.146;2023-04-06T01:37:55;101696.81;;;1.69;100.00
31538;BME280;18147;51.952;6.146;2023-04-06T01:40:27;101693.47;;;1.54;100.00
31538;BME280;18147;51.952;6.146;2023-04-06T01:42:53;101690.00;;;1.52;100.00
31538;BME280;18147;51.952;6.146;2023-04-06T01:45:27;101693.50;;;1.53;100.00
31538;BME280;18147;51.952;6.146;2023-04-06T01:47:58;101692.47;;;1.66;100.00
31538;BME280;18147;51.952;6.146;2023-04-06T01:50:26;101680.66;;;1.96;100.00
31538;BME280;18147;51.952;6.146;2023-04-06T01:52:51;101679.75;;;1.99;100.00
31538;BME280;18147;51.952;6.146;2023-04-06T01:55:17;101683.41;;;1.89;100.00
31538;BME280;18147;51.952;6.146;2023-04-06T01:58:00;101684.38;;;1.80;100.00
31538;BME280;18147;51.952;6.146;2023-04-06T02:00:33;101673.56;;;2.03;100.00
31538;BME280;18147;51.952;6.146;2023-04-06T02:03:01;101686.16;;;1.81;100.00
31538;BME280;18147;51.952;6.146;2023-04-06T02:05:30;101678.31;;;1.75;100.00
31538;BME280;18147;51.952;6.146;2023-04-06T02:07:57;101678.38;;;1.70;100.00
31538;BME280;18147;51.952;6.146;2023-04-06T02:10:31;101681.16;;;1.61;100.00
31538;BME280;18147;51.952;6.146;2023-04-06T02:13:02;101667.75;;;1.81;100.00
31538;BME280;18147;51.952;6.146;2023-04-06T02:15:28;101672.56;;;1.47;100.00
31538;BME280;18147;51.952;6.146;2023-04-06T02:17:54;101667.84;;;1.70;100.00
31538;BME280;18147;51.952;6.146;2023-04-06T02:20:19;101667.34;;;1.44;100.00
31538;BME280;18147;51.952;6.146;2023-04-06T02:22:46;101665.69;;;1.37;100.00
31538;BME280;18147;51.952;6.146;2023-04-06T02:25:11;101665.81;;;1.24;100.00
31538;BME280;18147;51.952;6.146;2023-04-06T02:27:38;101665.69;;;1.35;100.00
31538;BME280;18147;51.952;6.146;2023-04-06T02:30:08;101664.03;;;1.28;100.00
31538;BME280;18147;51.952;6.146;2023-04-06T02:32:35;101659.31;;;1.54;100.00
31538;BME280;18147;51.952;6.146;2023-04-06T02:35:01;101663.00;;;1.40;100.00
31538;BME280;18147;51.952;6.146;2023-04-06T02:37:33;101657.78;;;1.38;100.00
31538;BME280;18147;51.952;6.146;2023-04-06T02:40:05;101657.81;;;1.35;100.00
31538;BME280;18147;51.952;6.146;2023-04-06T02:42:31;101658.81;;;1.23;100.00
31538;BME280;18147;51.952;6.146;2023-04-06T02:44:58;101660.84;;;1.00;100.00
31538;BME280;18147;51.952;6.146;2023-04-06T02:47:28;101660.94;;;0.89;100.00
31538;BME280;18147;51.952;6.146;2023-04-06T02:49:54;101652.31;;;0.78;100.00
31538;BME280;18147;51.952;6.146;2023-04-06T02:52:20;101651.78;;;1.25;100.00
31538;BME280;18147;51.952;6.146;2023-04-06T02:54:45;101646.63;;;1.21;100.00
31538;BME280;18147;51.952;6.146;2023-04-06T02:57:11;101649.25;;;1.19;100.00
31538;BME280;18147;51.952;6.146;2023-04-06T02:59:41;101646.41;;;1.38;100.00
31538;BME280;18147;51.952;6.146;2023-04-06T03:02:15;101638.84;;;1.12;100.00
31538;BME280;18147;51.952;6.146;2023-04-06T03:04:44;101637.31;;;0.92;100.00
31538;BME280;18147;51.952;6.146;2023-04-06T03:07:20;101641.59;;;0.98;100.00
31538;BME280;18147;51.952;6.146;2023-04-06T03:09:45;101635.25;;;1.19;100.00
31538;BME280;18147;51.952;6.146;2023-04-06T03:12:11;101632.63;;;1.17;100.00
31538;BME280;18147;51.952;6.146;2023-04-06T03:15:00;101634.25;;;1.31;100.00
31538;BME280;18147;51.952;6.146;2023-04-06T03:17:26;101627.13;;;1.39;100.00
31538;BME280;18147;51.952;6.146;2023-04-06T03:19:56;101622.72;;;1.39;100.00
31538;BME280;18147;51.952;6.146;2023-04-06T03:22:22;101622.22;;;1.11;100.00
31538;BME280;18147;51.952;6.146;2023-04-06T03:24:48;101628.63;;;0.84;100.00
31538;BME280;18147;51.952;6.146;2023-04-06T03:27:13;101629.06;;;0.38;100.00
31538;BME280;18147;51.952;6.146;2023-04-06T03:29:40;101627.97;;;0.65;100.00
31538;BME280;18147;51.952;6.146;2023-04-06T03:32:08;101621.59;;;0.88;100.00
31538;BME280;18147;51.952;6.146;2023-04-06T03:34:39;101624.88;;;1.08;100.00
31538;BME280;18147;51.952;6.146;2023-04-06T03:37:06;101624.03;;;1.04;100.00
31538;BME280;18147;51.952;6.146;2023-04-06T03:39:31;101625.75;;;1.07;100.00
31538;BME280;18147;51.952;6.146;2023-04-06T03:41:59;101626.59;;;1.09;100.00
31538;BME280;18147;51.952;6.146;2023-04-06T03:44:32;101616.78;;;1.23;100.00
31538;BME280;18147;51.952;6.146;2023-04-06T03:46:58;101613.28;;;1.24;100.00
31538;BME280;18147;51.952;6.146;2023-04-06T03:49:24;101623.66;;;1.34;100.00
31538;BME280;18147;51.952;6.146;2023-04-06T03:51:52;101610.41;;;1.43;100.00
31538;BME280;18147;51.952;6.146;2023-04-06T03:54:28;101611.66;;;1.16;100.00
31538;BME280;18147;51.952;6.146;2023-04-06T03:57:18;101612.47;;;1.19;100.00
31538;BME280;18147;51.952;6.146;2023-04-06T03:59:43;101617.72;;;1.19;100.00
31538;BME280;18147;51.952;6.146;2023-04-06T04:02:09;101616.19;;;1.01;100.00
31538;BME280;18147;51.952;6.146;2023-04-06T04:04:35;101612.72;;;0.98;100.00
31538;BME280;18147;51.952;6.146;2023-04-06T04:07:00;101611.03;;;0.94;100.00
31538;BME280;18147;51.952;6.146;2023-04-06T04:09:25;101617.16;;;0.93;100.00
31538;BME280;18147;51.952;6.146;2023-04-06T04:11:51;101613.63;;;0.97;100.00
31538;BME280;18147;51.952;6.146;2023-04-06T04:14:17;101609.13;;;1.05;100.00
31538;BME280;18147;51.952;6.146;2023-04-06T04:16:42;101616.09;;;1.09;100.00
31538;BME280;18147;51.952;6.146;2023-04-06T04:19:08;101606.59;;;1.00;100.00
31538;BME280;18147;51.952;6.146;2023-04-06T04:21:33;101606.63;;;0.96;100.00
31538;BME280;18147;51.952;6.146;2023-04-06T04:24:05;101615.38;;;0.95;100.00
31538;BME280;18147;51.952;6.146;2023-04-06T04:26:33;101612.06;;;0.79;100.00
31538;BME280;18147;51.952;6.146;2023-04-06T04:28:59;101615.44;;;0.90;100.00
31538;BME280;18147;51.952;6.146;2023-04-06T04:31:25;101613.66;;;0.92;100.00
31538;BME280;18147;51.952;6.146;2023-04-06T04:33:55;101609.22;;;0.97;100.00
31538;BME280;18147;51.952;6.146;2023-04-06T04:36:26;101606.06;;;0.68;100.00
31538;BME280;18147;51.952;6.146;2023-04-06T04:38:54;101609.38;;;0.84;100.00
31538;BME280;18147;51.952;6.146;2023-04-06T04:41:20;101607.59;;;0.87;100.00
31538;BME280;18147;51.952;6.146;2023-04-06T04:43:47;101604.94;;;0.92;100.00
31538;BME280;18147;51.952;6.146;2023-04-06T04:46:15;101606.50;;;1.05;100.00
31538;BME280;18147;51.952;6.146;2023-04-06T04:48:42;101610.88;;;1.04;100.00
31538;BME280;18147;51.952;6.146;2023-04-06T04:51:07;101608.06;;;1.20;100.00
31538;BME280;18147;51.952;6.146;2023-04-06T04:53:56;101607.22;;;1.21;100.00
31538;BME280;18147;51.952;6.146;2023-04-06T04:56:26;101609.78;;;1.24;100.00
31538;BME280;18147;51.952;6.146;2023-04-06T04:58:58;101610.84;;;1.09;100.00
31538;BME280;18147;51.952;6.146;2023-04-06T05:01:26;101614.16;;;1.23;100.00
31538;BME280;18147;51.952;6.146;2023-04-06T05:03:52;101600.75;;;1.45;100.00
31538;BME280;18147;51.952;6.146;2023-04-06T05:06:17;101610.44;;;1.40;100.00
31538;BME280;18147;51.952;6.146;2023-04-06T05:08:44;101600.56;;;1.59;100.00
31538;BME280;18147;51.952;6.146;2023-04-06T05:11:10;101596.22;;;1.54;100.00
31538;BME280;18147;51.952;6.146;2023-04-06T05:13:40;101594.47;;;1.55;100.00
31538;BME280;18147;51.952;6.146;2023-04-06T05:16:11;101598.78;;;1.62;100.00
31538;BME280;18147;51.952;6.146;2023-04-06T05:18:37;101592.41;;;1.77;100.00
31538;BME280;18147;51.952;6.146;2023-04-06T05:21:04;101588.03;;;1.77;100.00
31538;BME280;18147;51.952;6.146;2023-04-06T05:23:38;101585.81;;;2.05;100.00
31538;BME280;18147;51.952;6.146;2023-04-06T05:26:04;101587.56;;;2.06;100.00
31538;BME280;18147;51.952;6.146;2023-04-06T05:28:31;101589.16;;;2.15;100.00
31538;BME280;18147;51.952;6.146;2023-04-06T05:30:57;101579.28;;;2.29;100.00
31538;BME280;18147;51.952;6.146;2023-04-06T05:33:25;101587.50;;;2.11;100.00
31538;BME280;18147;51.952;6.146;2023-04-06T05:36:10;101578.88;;;2.03;100.00
31538;BME280;18147;51.952;6.146;2023-04-06T05:38:39;101583.50;;;2.40;100.00
31538;BME280;18147;51.952;6.146;2023-04-06T05:41:16;101573.94;;;2.80;100.00
31538;BME280;18147;51.952;6.146;2023-04-06T05:43:41;101572.97;;;2.86;100.00
31538;BME280;18147;51.952;6.146;2023-04-06T05:46:07;101579.00;;;2.93;100.00
31538;BME280;18147;51.952;6.146;2023-04-06T05:48:33;101575.44;;;3.35;100.00
31538;BME280;18147;51.952;6.146;2023-04-06T05:50:59;101577.84;;;3.46;100.00
31538;BME280;18147;51.952;6.146;2023-04-06T05:53:34;101572.78;;;3.76;100.00
31538;BME280;18147;51.952;6.146;2023-04-06T05:56:03;101571.88;;;4.14;100.00
31538;BME280;18147;51.952;6.146;2023-04-06T05:58:29;101565.28;;;4.30;98.85
31538;BME280;18147;51.952;6.146;2023-04-06T06:01:01;101569.22;;;4.48;96.38
31538;BME280;18147;51.952;6.146;2023-04-06T06:03:36;101574.44;;;4.84;97.26
31538;BME280;18147;51.952;6.146;2023-04-06T06:06:04;101566.34;;;5.19;92.83
31538;BME280;18147;51.952;6.146;2023-04-06T06:08:39;101559.78;;;5.33;87.59
31538;BME280;18147;51.952;6.146;2023-04-06T06:11:11;101554.59;;;5.30;88.73
31538;BME280;18147;51.952;6.146;2023-04-06T06:13:37;101558.22;;;5.27;89.48
31538;BME280;18147;51.952;6.146;2023-04-06T06:16:03;101559.47;;;5.43;92.82
31538;BME280;18147;51.952;6.146;2023-04-06T06:18:34;101557.91;;;5.36;89.11
31538;BME280;18147;51.952;6.146;2023-04-06T06:21:08;101549.19;;;5.62;84.38
31538;BME280;18147;51.952;6.146;2023-04-06T06:23:42;101551.94;;;5.86;82.00
31538;BME280;18147;51.952;6.146;2023-04-06T06:26:08;101547.47;;;6.41;80.84
31538;BME280;18147;51.952;6.146;2023-04-06T06:28:38;101556.81;;;6.53;81.02
31538;BME280;18147;51.952;6.146;2023-04-06T06:31:06;101546.81;;;6.09;80.22
31538;BME280;18147;51.952;6.146;2023-04-06T06:33:33;101549.47;;;6.34;80.69
31538;BME280;18147;51.952;6.146;2023-04-06T06:36:01;101555.00;;;7.01;79.65
31538;BME280;18147;51.952;6.146;2023-04-06T06:38:26;101546.63;;;7.81;75.73
31538;BME280;18147;51.952;6.146;2023-04-06T06:40:52;101549.88;;;8.52;74.80
31538;BME280;18147;51.952;6.146;2023-04-06T06:43:19;101552.00;;;8.44;72.29
31538;BME280;18147;51.952;6.146;2023-04-06T06:45:53;101556.84;;;8.75;71.20
31538;BME280;18147;51.952;6.146;2023-04-06T06:48:19;101548.09;;;8.30;71.30
31538;BME280;18147;51.952;6.146;2023-04-06T06:50:47;101554.63;;;8.23;71.25
31538;BME280;18147;51.952;6.146;2023-04-06T06:53:13;101551.91;;;8.03;71.19
31538;BME280;18147;51.952;6.146;2023-04-06T06:55:39;101544.81;;;8.03;70.40
31538;BME280;18147;51.952;6.146;2023-04-06T06:58:04;101547.31;;;8.28;70.78
31538;BME280;18147;51.952;6.146;2023-04-06T07:00:31;101541.31;;;8.45;70.55
31538;BME280;18147;51.952;6.146;2023-04-06T07:02:57;101542.63;;;8.76;69.48
31538;BME280;18147;51.952;6.146;2023-04-06T07:05:22;101528.06;;;9.03;69.93
31538;BME280;18147;51.952;6.146;2023-04-06T07:07:48;101528.94;;;9.78;67.93
31538;BME280;18147;51.952;6.146;2023-04-06T07:10:14;101522.97;;;9.73;65.27
31538;BME280;18147;51.952;6.146;2023-04-06T07:12:39;101518.97;;;10.00;64.26
31538;BME280;18147;51.952;6.146;2023-04-06T07:15:05;101521.16;;;9.92;61.81
31538;BME280;18147;51.952;6.146;2023-04-06T07:17:33;101513.97;;;10.29;60.96
31538;BME280;18147;51.952;6.146;2023-04-06T07:19:59;101504.31;;;10.94;59.63
31538;BME280;18147;51.952;6.146;2023-04-06T07:22:25;101504.13;;;10.81;59.90
31538;BME280;18147;51.952;6.146;2023-04-06T07:24:52;101508.34;;;10.35;59.63
31538;BME280;18147;51.952;6.146;2023-04-06T07:27:17;101508.59;;;10.30;60.16
31538;BME280;18147;51.952;6.146;2023-04-06T07:29:44;101499.94;;;10.43;58.10
31538;BME280;18147;51.952;6.146;2023-04-06T07:32:10;101502.41;;;10.30;58.20
31538;BME280;18147;51.952;6.146;2023-04-06T07:34:36;101498.53;;;10.53;59.32
31538;BME280;18147;51.952;6.146;2023-04-06T07:37:01;101500.22;;;10.71;59.27
31538;BME280;18147;51.952;6.146;2023-04-06T07:39:28;101495.75;;;10.72;56.72
31538;BME280;18147;51.952;6.146;2023-04-06T07:41:55;101496.88;;;10.83;56.83
31538;BME280;18147;51.952;6.146;2023-04-06T07:44:21;101494.53;;;11.26;56.36
31538;BME280;18147;51.952;6.146;2023-04-06T07:46:47;101491.69;;;11.61;54.62
31538;BME280;18147;51.952;6.146;2023-04-06T07:49:13;101491.25;;;11.05;54.64
31538;BME280;18147;51.952;6.146;2023-04-06T07:51:39;101484.72;;;11.27;54.77
31538;BME280;18147;51.952;6.146;2023-04-06T07:54:05;101497.19;;;11.74;54.52
31538;BME280;18147;51.952;6.146;2023-04-06T07:56:31;101488.41;;;11.87;53.93
31538;BME280;18147;51.952;6.146;2023-04-06T07:58:57;101492.47;;;12.09;54.32
31538;BME280;18147;51.952;6.146;2023-04-06T08:01:23;101488.59;;;12.29;53.24
31538;BME280;18147;51.952;6.146;2023-04-06T08:03:49;101489.75;;;11.95;54.21
31538;BME280;18147;51.952;6.146;2023-04-06T08:06:16;101487.44;;;12.63;52.99
31538;BME280;18147;51.952;6.146;2023-04-06T08:08:42;101484.63;;;12.36;53.81
31538;BME280;18147;51.952;6.146;2023-04-06T08:11:08;101495.91;;;12.69;52.68
31538;BME280;18147;51.952;6.146;2023-04-06T08:13:34;101493.91;;;12.59;51.61
31538;BME280;18147;51.952;6.146;2023-04-06T08:16:00;101494.34;;;11.77;53.87
31538;BME280;18147;51.952;6.146;2023-04-06T08:18:26;101494.34;;;12.23;53.20
31538;BME280;18147;51.952;6.146;2023-04-06T08:20:51;101495.13;;;11.47;55.01
31538;BME280;18147;51.952;6.146;2023-04-06T08:23:17;101493.00;;;10.89;55.03
31538;BME280;18147;51.952;6.146;2023-04-06T08:25:43;101488.75;;;11.65;54.94
31538;BME280;18147;51.952;6.146;2023-04-06T08:28:08;101493.91;;;11.68;55.16
31538;BME280;18147;51.952;6.146;2023-04-06T08:30:35;101496.75;;;11.97;55.13
31538;BME280;18147;51.952;6.146;2023-04-06T08:33:00;101486.06;;;11.81;55.50
31538;BME280;18147;51.952;6.146;2023-04-06T08:35:26;101485.38;;;11.78;54.00
31538;BME280;18147;51.952;6.146;2023-04-06T08:37:52;101485.75;;;11.56;55.89
31538;BME280;18147;51.952;6.146;2023-04-06T08:40:18;101476.75;;;11.88;54.57
31538;BME280;18147;51.952;6.146;2023-04-06T08:42:50;101483.59;;;12.08;54.98
31538;BME280;18147;51.952;6.146;2023-04-06T08:45:17;101476.50;;;11.77;55.19
31538;BME280;18147;51.952;6.146;2023-04-06T08:47:52;101478.09;;;11.50;54.53
31538;BME280;18147;51.952;6.146;2023-04-06T08:50:18;101481.59;;;12.12;55.13
31538;BME280;18147;51.952;6.146;2023-04-06T08:52:48;101475.19;;;12.14;54.18
31538;BME280;18147;51.952;6.146;2023-04-06T08:55:14;101476.53;;;11.61;54.45
31538;BME280;18147;51.952;6.146;2023-04-06T08:57:40;101467.53;;;11.78;55.46
31538;BME280;18147;51.952;6.146;2023-04-06T09:00:07;101474.72;;;11.62;54.66
31538;BME280;18147;51.952;6.146;2023-04-06T09:02:39;101477.34;;;11.78;55.01
31538;BME280;18147;51.952;6.146;2023-04-06T09:05:07;101475.72;;;12.21;55.65
31538;BME280;18147;51.952;6.146;2023-04-06T09:07:36;101473.00;;;12.51;53.87
31538;BME280;18147;51.952;6.146;2023-04-06T09:10:01;101477.63;;;12.33;55.17
31538;BME280;18147;51.952;6.146;2023-04-06T09:12:29;101487.53;;;12.61;55.01
31538;BME280;18147;51.952;6.146;2023-04-06T09:14:55;101488.38;;;12.62;53.51
31538;BME280;18147;51.952;6.146;2023-04-06T09:17:26;101480.63;;;13.00;53.53
31538;BME280;18147;51.952;6.146;2023-04-06T09:19:52;101478.31;;;13.08;53.53
31538;BME280;18147;51.952;6.146;2023-04-06T09:22:18;101482.53;;;13.12;54.12
31538;BME280;18147;51.952;6.146;2023-04-06T09:24:48;101470.03;;;13.54;53.86
31538;BME280;18147;51.952;6.146;2023-04-06T09:27:14;101471.75;;;13.95;51.96
31538;BME280;18147;51.952;6.146;2023-04-06T09:29:44;101466.88;;;14.14;52.59
31538;BME280;18147;51.952;6.146;2023-04-06T09:32:11;101463.03;;;14.18;51.48
31538;BME280;18147;51.952;6.146;2023-04-06T09:34:40;101467.41;;;14.07;51.93
31538;BME280;18147;51.952;6.146;2023-04-06T09:37:16;101463.91;;;12.96;51.59
31538;BME280;18147;51.952;6.146;2023-04-06T09:39:43;101465.47;;;13.42;52.53
31538;BME280;18147;51.952;6.146;2023-04-06T09:42:09;101461.78;;;13.57;52.07
31538;BME280;18147;51.952;6.146;2023-04-06T09:44:35;101450.91;;;14.25;50.91
31538;BME280;18147;51.952;6.146;2023-04-06T09:47:03;101458.25;;;14.49;51.14
31538;BME280;18147;51.952;6.146;2023-04-06T09:49:32;101454.59;;;14.50;51.20
31538;BME280;18147;51.952;6.146;2023-04-06T09:52:08;101453.28;;;14.43;50.93
31538;BME280;18147;51.952;6.146;2023-04-06T09:54:37;101455.22;;;14.41;51.32
31538;BME280;18147;51.952;6.146;2023-04-06T09:57:25;101454.38;;;14.66;50.54
31538;BME280;18147;51.952;6.146;2023-04-06T10:00:06;101454.88;;;14.33;50.93
31538;BME280;18147;51.952;6.146;2023-04-06T10:05:21;101455.78;;;13.93;51.86
31538;BME280;18147;51.952;6.146;2023-04-06T10:07:53;101449.22;;;14.37;50.99
31538;BME280;18147;51.952;6.146;2023-04-06T10:10:21;101452.72;;;14.12;51.36
31538;BME280;18147;51.952;6.146;2023-04-06T10:12:48;101451.91;;;14.50;50.26
31538;BME280;18147;51.952;6.146;2023-04-06T10:15:15;101452.06;;;14.09;50.01
31538;BME280;18147;51.952;6.146;2023-04-06T10:17:41;101454.13;;;14.43;50.83
31538;BME280;18147;51.952;6.146;2023-04-06T10:20:22;101451.38;;;14.58;51.26
31538;BME280;18147;51.952;6.146;2023-04-06T10:22:55;101454.97;;;14.06;50.88
31538;BME280;18147;51.952;6.146;2023-04-06T10:25:32;101457.34;;;14.23;51.24
31538;BME280;18147;51.952;6.146;2023-04-06T10:28:05;101456.59;;;14.21;50.54
31538;BME280;18147;51.952;6.146;2023-04-06T10:30:33;101458.59;;;14.57;50.98
31538;BME280;18147;51.952;6.146;2023-04-06T10:33:00;101459.72;;;14.40;49.67
31538;BME280;18147;51.952;6.146;2023-04-06T10:35:36;101455.66;;;14.73;50.28
31538;BME280;18147;51.952;6.146;2023-04-06T10:38:04;101460.06;;;14.36;51.40
31538;BME280;18147;51.952;6.146;2023-04-06T10:40:31;101453.50;;;14.65;50.89
31538;BME280;18147;51.952;6.146;2023-04-06T10:43:17;101451.53;;;14.04;50.40
31538;BME280;18147;51.952;6.146;2023-04-06T10:45:44;101459.72;;;14.40;50.34
31538;BME280;18147;51.952;6.146;2023-04-06T10:48:17;101461.97;;;14.34;47.75
31538;BME280;18147;51.952;6.146;2023-04-06T10:50:44;101452.31;;;14.31;46.78
31538;BME280;18147;51.952;6.146;2023-04-06T10:53:11;101455.19;;;14.15;49.15
31538;BME280;18147;51.952;6.146;2023-04-06T10:55:39;101457.53;;;14.20;49.01
31538;BME280;18147;51.952;6.146;2023-04-06T10:58:07;101454.59;;;14.50;47.60
31538;BME280;18147;51.952;6.146;2023-04-06T11:00:33;101448.22;;;14.25;48.37
31538;BME280;18147;51.952;6.146;2023-04-06T11:02:59;101449.19;;;14.88;48.45
31538;BME280;18147;51.952;6.146;2023-04-06T11:05:26;101452.88;;;14.36;49.87
31538;BME280;18147;51.952;6.146;2023-04-06T11:07:51;101457.91;;;14.41;50.39
31538;BME280;18147;51.952;6.146;2023-04-06T11:10:23;101455.34;;;14.65;50.28
31538;BME280;18147;51.952;6.146;2023-04-06T11:12:53;101457.56;;;14.33;51.40
31538;BME280;18147;51.952;6.146;2023-04-06T11:15:20;101454.94;;;14.58;51.35
31538;BME280;18147;51.952;6.146;2023-04-06T11:17:46;101454.19;;;14.56;50.46
31538;BME280;18147;51.952;6.146;2023-04-06T11:20:11;101463.34;;;14.01;52.08
31538;BME280;18147;51.952;6.146;2023-04-06T11:22:48;101466.13;;;14.25;51.40
31538;BME280;18147;51.952;6.146;2023-04-06T11:25:14;101464.75;;;13.80;51.22
31538;BME280;18147;51.952;6.146;2023-04-06T11:27:42;101464.16;;;14.54;51.76
31538;BME280;18147;51.952;6.146;2023-04-06T11:30:09;101461.44;;;14.80;52.51
31538;BME280;18147;51.952;6.146;2023-04-06T11:32:43;101462.44;;;14.53;53.04
31538;BME280;18147;51.952;6.146;2023-04-06T11:35:27;101453.59;;;15.26;50.82
31538;BME280;18147;51.952;6.146;2023-04-06T11:37:52;101452.50;;;15.41;49.69
31538;BME280;18147;51.952;6.146;2023-04-06T11:40:22;101450.09;;;15.97;49.74
31538;BME280;18147;51.952;6.146;2023-04-06T11:42:55;101447.50;;;15.24;49.35
31538;BME280;18147;51.952;6.146;2023-04-06T11:45:21;101444.09;;;15.22;49.73
31538;BME280;18147;51.952;6.146;2023-04-06T11:47:58;101440.97;;;15.15;50.87
31538;BME280;18147;51.952;6.146;2023-04-06T11:50:25;101440.03;;;15.16;51.16
31538;BME280;18147;51.952;6.146;2023-04-06T11:53:01;101438.19;;;15.41;50.20
31538;BME280;18147;51.952;6.146;2023-04-06T11:55:28;101440.44;;;16.06;51.81
31538;BME280;18147;51.952;6.146;2023-04-06T11:57:54;101435.72;;;15.14;49.78
31538;BME280;18147;51.952;6.146;2023-04-06T12:00:20;101433.25;;;15.11;49.84
31538;BME280;18147;51.952;6.146;2023-04-06T12:02:47;101436.91;;;15.10;50.71
31538;BME280;18147;51.952;6.146;2023-04-06T12:05:16;101440.28;;;15.24;50.48
31538;BME280;18147;51.952;6.146;2023-04-06T12:07:41;101442.75;;;14.40;51.34
31538;BME280;18147;51.952;6.146;2023-04-06T12:10:10;101441.88;;;14.14;52.12
31538;BME280;18147;51.952;6.146;2023-04-06T12:12:36;101434.72;;;14.65;52.57
31538;BME280;18147;51.952;6.146;2023-04-06T12:15:01;101440.84;;;14.67;53.09
31538;BME280;18147;51.952;6.146;2023-04-06T12:17:27;101442.00;;;14.89;54.71
31538;BME280;18147;51.952;6.146;2023-04-06T12:19:53;101446.22;;;14.42;53.10
31538;BME280;18147;51.952;6.146;2023-04-06T12:22:22;101452.56;;;13.88;54.94
31538;BME280;18147;51.952;6.146;2023-04-06T12:24:47;101445.44;;;13.20;58.91
31538;BME280;18147;51.952;6.146;2023-04-06T12:27:13;101456.03;;;13.36;59.98
31538;BME280;18147;51.952;6.146;2023-04-06T12:29:39;101453.94;;;12.99;60.38
31538;BME280;18147;51.952;6.146;2023-04-06T12:32:05;101448.63;;;13.40;62.39
31538;BME280;18147;51.952;6.146;2023-04-06T12:34:31;101450.41;;;13.27;61.44
31538;BME280;18147;51.952;6.146;2023-04-06T12:36:57;101447.06;;;13.23;62.50
31538;BME280;18147;51.952;6.146;2023-04-06T12:39:23;101451.41;;;12.83;62.70
31538;BME280;18147;51.952;6.146;2023-04-06T12:41:49;101453.25;;;13.38;63.27
31538;BME280;18147;51.952;6.146;2023-04-06T12:44:14;101470.03;;;12.70;65.80
31538;BME280;18147;51.952;6.146;2023-04-06T12:46:40;101465.84;;;12.80;70.39
31538;BME280;18147;51.952;6.146;2023-04-06T12:49:08;101485.56;;;12.05;78.38
31538;BME280;18147;51.952;6.146;2023-04-06T12:51:36;101487.97;;;12.09;86.61
31538;BME280;18147;51.952;6.146;2023-04-06T12:54:02;101476.59;;;12.36;89.68
31538;BME280;18147;51.952;6.146;2023-04-06T12:56:28;101478.25;;;12.53;93.00
31538;BME280;18147;51.952;6.146;2023-04-06T12:58:53;101475.94;;;12.47;94.08